Time;durP1;ratioP1;P1;durP2;ratioP2;P2;SDS_P1;SDS_P2;PMS_P1;PMS_P2;Temp;Humidity;BMP_temperature;BMP_pressure;BME280_temperature;BME280_humidity;BME280_pressure;Samples;Min_cycle;Max_cycle;Signal;HPM_P1;HPM_P2
2021/04/18 00:02:15;;;;;;;9.75;5.43;;;6.10;97.50;;;;;;5069904;28;20032;-49
2021/04/18 00:05:25;;;;;;;6.57;5.40;;;6.10;97.50;;;;;;5077840;28;20033;-48
2021/04/18 00:08:29;;;;;;;7.18;5.15;;;6.00;97.90;;;;;;5069980;28;20044;-48
2021/04/18 00:11:33;;;;;;;7.57;5.13;;;6.00;98.10;;;;;;5076380;28;20032;-48
2021/04/18 00:14:38;;;;;;;8.68;5.05;;;6.00;98.00;;;;;;5071668;28;20144;-53
2021/04/18 00:17:42;;;;;;;8.80;5.05;;;5.90;98.20;;;;;;5069629;28;20045;-49
2021/04/18 00:20:46;;;;;;;8.63;5.20;;;5.80;98.60;;;;;;5069608;28;20044;-50
2021/04/18 00:23:51;;;;;;;6.93;5.40;;;5.80;99.30;;;;;;5069725;28;20033;-48
2021/04/18 00:26:54;;;;;;;7.65;5.47;;;5.70;99.60;;;;;;5068722;28;20396;-49
2021/04/18 00:29:59;;;;;;;8.05;5.25;;;5.60;99.90;;;;;;5083544;28;20028;-49
2021/04/18 00:33:03;;;;;;;8.07;6.15;;;5.40;99.90;;;;;;5056816;28;20491;-48
2021/04/18 00:36:08;;;;;;;10.13;6.40;;;5.30;99.90;;;;;;5069214;28;20279;-48
2021/04/18 00:39:11;;;;;;;7.18;5.10;;;5.30;99.90;;;;;;5069027;28;20518;-48
2021/04/18 00:42:15;;;;;;;10.50;6.00;;;5.20;99.90;;;;;;5069041;28;20032;-48
2021/04/18 00:45:21;;;;;;;11.25;6.30;;;5.10;99.90;;;;;;5056713;28;20040;-51
2021/04/18 00:48:25;;;;;;;11.10;6.30;;;5.00;99.90;;;;;;5069393;28;20312;-48
2021/04/18 00:51:30;;;;;;;8.73;5.65;;;5.00;99.90;;;;;;5068503;28;20043;-52
2021/04/18 00:54:34;;;;;;;9.85;6.95;;;5.10;99.90;;;;;;5069257;28;20036;-47
2021/04/18 00:57:37;;;;;;;8.68;6.00;;;5.10;99.90;;;;;;5069054;28;20037;-48
2021/04/18 01:00:45;;;;;;;15.10;5.78;;;5.00;99.90;;;;;;5068776;28;20032;-48
2021/04/18 01:03:50;;;;;;;9.70;6.43;;;5.00;99.90;;;;;;5089580;28;20036;-48
2021/04/18 01:06:55;;;;;;;7.90;6.32;;;5.10;99.90;;;;;;5088970;28;20040;-50
2021/04/18 01:10:00;;;;;;;9.25;5.53;;;5.00;99.90;;;;;;5089260;28;20028;-47
2021/04/18 01:13:04;;;;;;;11.00;5.53;;;5.00;99.90;;;;;;5089162;28;20032;-48
2021/04/18 01:16:09;;;;;;;9.85;6.30;;;5.00;99.90;;;;;;5088991;28;20059;-51
2021/04/18 01:19:14;;;;;;;9.38;6.13;;;5.00;99.90;;;;;;5076744;28;20048;-49
2021/04/18 01:22:19;;;;;;;9.25;5.80;;;4.90;99.90;;;;;;5076379;28;20044;-48
2021/04/18 01:25:43;;;;;;;8.27;5.78;;;4.90;99.90;;;;;;5076689;28;20040;-51
2021/04/18 01:28:57;;;;;;;8.20;6.57;;;5.00;99.90;;;;;;5105995;28;20043;-48
2021/04/18 01:32:01;;;;;;;9.32;6.75;;;5.10;99.90;;;;;;5109332;28;20040;-49
2021/04/18 01:35:06;;;;;;;9.25;5.82;;;5.10;99.90;;;;;;5109726;28;20446;-51
2021/04/18 01:38:11;;;;;;;9.63;5.47;;;4.90;99.90;;;;;;5110629;28;20390;-49
2021/04/18 01:41:15;;;;;;;7.65;5.95;;;4.90;99.90;;;;;;5100473;28;20382;-49
2021/04/18 01:44:21;;;;;;;9.70;6.50;;;4.90;99.90;;;;;;5113779;28;20036;-50
2021/04/18 01:47:25;;;;;;;9.18;5.78;;;4.90;99.90;;;;;;5100676;28;20039;-49
2021/04/18 01:50:31;;;;;;;8.50;5.75;;;4.90;99.90;;;;;;5113393;28;20039;-49
2021/04/18 01:53:36;;;;;;;10.90;6.53;;;5.00;99.90;;;;;;5113376;28;20039;-48
2021/04/18 01:56:40;;;;;;;11.20;6.63;;;5.00;99.90;;;;;;5112724;28;20040;-48
2021/04/18 01:59:46;;;;;;;10.80;6.10;;;5.10;99.90;;;;;;5100809;28;20040;-48
2021/04/18 02:03:18;;;;;;;9.65;5.95;;;5.10;99.90;;;;;;5092504;28;20406;-53
2021/04/18 02:06:25;;;;;;;8.88;6.65;;;5.10;99.90;;;;;;5080185;28;20040;-50
2021/04/18 02:09:39;;;;;;;10.82;6.43;;;5.10;99.90;;;;;;5068396;28;20040;-48
2021/04/18 02:12:46;;;;;;;11.07;7.07;;;5.10;99.90;;;;;;5095732;28;20046;-51
2021/04/18 02:15:53;;;;;;;9.43;6.45;;;5.00;99.90;;;;;;5107656;28;20050;-49
2021/04/18 02:19:01;;;;;;;10.32;6.55;;;4.90;99.90;;;;;;5086382;28;20387;-51
2021/04/18 02:22:08;;;;;;;12.13;6.65;;;4.80;99.90;;;;;;5081546;28;20032;-49
2021/04/18 02:25:19;;;;;;;11.65;6.90;;;4.80;99.90;;;;;;5080012;28;20040;-48
2021/04/18 02:28:24;;;;;;;10.20;5.97;;;4.60;99.90;;;;;;5093236;28;20676;-48
2021/04/18 02:31:32;;;;;;;8.80;6.28;;;4.60;99.90;;;;;;5079562;28;20044;-51
2021/04/18 02:34:37;;;;;;;11.20;6.30;;;4.60;99.90;;;;;;5079584;28;20035;-51
2021/04/18 02:37:47;;;;;;;9.40;6.25;;;4.60;99.90;;;;;;5078086;28;20047;-50
2021/04/18 02:40:54;;;;;;;11.07;7.20;;;4.60;99.90;;;;;;5079287;28;20036;-49
2021/04/18 02:43:59;;;;;;;10.30;6.75;;;4.60;99.90;;;;;;5092346;28;20644;-49
2021/04/18 02:47:05;;;;;;;12.02;6.15;;;4.60;99.90;;;;;;5086509;28;20051;-49
2021/04/18 02:50:12;;;;;;;17.23;7.72;;;4.70;99.90;;;;;;5088716;28;20046;-47
2021/04/18 02:53:16;;;;;;;10.02;6.75;;;4.70;99.90;;;;;;5091188;28;20043;-52
2021/04/18 02:56:20;;;;;;;9.30;6.75;;;4.60;99.90;;;;;;5090880;28;20509;-48
2021/04/18 02:59:33;;;;;;;12.57;7.13;;;4.60;99.90;;;;;;5084499;28;20032;-48
2021/04/18 03:02:38;;;;;;;12.10;6.97;;;4.70;99.90;;;;;;5106981;28;20308;-51
2021/04/18 03:05:42;;;;;;;11.20;6.82;;;4.60;99.90;;;;;;5099123;28;20031;-52
2021/04/18 03:08:46;;;;;;;10.50;6.78;;;4.50;99.90;;;;;;5111797;28;20206;-50
2021/04/18 03:11:50;;;;;;;10.18;6.57;;;4.50;99.90;;;;;;5111474;28;20047;-49
2021/04/18 03:15:08;;;;;;;10.68;6.80;;;4.50;99.90;;;;;;5111800;28;20055;-51
2021/04/18 03:18:14;;;;;;;12.02;6.38;;;4.40;99.90;;;;;;5099206;28;20044;-48
2021/04/18 03:21:19;;;;;;;13.05;7.22;;;4.30;99.90;;;;;;5099444;28;20406;-47
2021/04/18 03:24:24;;;;;;;10.27;7.13;;;4.20;99.90;;;;;;5099042;28;20035;-50
2021/04/18 03:27:29;;;;;;;9.95;6.68;;;4.20;99.90;;;;;;5098754;28;20394;-50
2021/04/18 03:30:36;;;;;;;12.13;7.82;;;4.20;99.90;;;;;;5098715;28;20043;-49
2021/04/18 03:33:42;;;;;;;11.52;6.72;;;4.40;99.90;;;;;;5098312;28;20039;-48
2021/04/18 03:36:48;;;;;;;13.27;7.78;;;4.40;99.90;;;;;;5098493;28;20038;-50
2021/04/18 03:39:55;;;;;;;10.63;6.80;;;4.40;99.90;;;;;;5098655;28;20046;-47
2021/04/18 03:42:59;;;;;;;9.70;6.68;;;4.40;99.90;;;;;;5110789;28;20516;-47
2021/04/18 03:46:04;;;;;;;10.43;7.28;;;4.40;99.90;;;;;;5098549;28;20478;-48
2021/04/18 03:49:18;;;;;;;15.18;8.00;;;4.40;99.90;;;;;;5098415;28;20051;-49
2021/04/18 03:52:25;;;;;;;12.63;7.43;;;4.40;99.90;;;;;;5098341;28;20042;-48
2021/04/18 03:55:29;;;;;;;12.90;7.20;;;4.40;99.90;;;;;;5098109;28;20044;-47
2021/04/18 03:58:36;;;;;;;12.32;7.25;;;4.30;99.90;;;;;;5098211;28;20336;-48
2021/04/18 04:01:43;;;;;;;11.02;7.07;;;4.30;99.90;;;;;;5097495;28;20046;-47
2021/04/18 04:04:51;;;;;;;11.15;7.13;;;4.30;99.90;;;;;;5098076;28;20048;-48
2021/04/18 04:07:56;;;;;;;11.85;7.45;;;4.20;99.90;;;;;;5097993;28;20032;-47
2021/04/18 04:11:02;;;;;;;12.88;8.13;;;4.10;99.90;;;;;;5110926;28;20047;-48
2021/04/18 04:14:10;;;;;;;12.57;7.97;;;4.10;99.90;;;;;;5097769;28;20314;-48
2021/04/18 04:17:20;;;;;;;12.00;7.72;;;4.00;99.90;;;;;;5097640;28;20051;-47
2021/04/18 04:20:45;;;;;;;12.88;8.82;;;4.00;99.90;;;;;;5110450;28;20514;-49
2021/04/18 04:24:08;;;;;;;13.07;8.35;;;4.00;99.90;;;;;;5110418;28;20043;-48
2021/04/18 04:27:12;;;;;;;11.85;7.97;;;3.90;99.90;;;;;;5110227;28;20043;-48
2021/04/18 04:30:17;;;;;;;13.48;8.52;;;3.90;99.90;;;;;;5110902;28;20516;-50
2021/04/18 04:33:21;;;;;;;11.90;8.30;;;3.90;99.90;;;;;;5110362;28;20038;-49
2021/04/18 04:36:25;;;;;;;13.98;8.68;;;4.00;99.90;;;;;;5110420;28;20607;-48
2021/04/18 04:39:29;;;;;;;19.00;9.77;;;3.90;99.90;;;;;;5097675;28;20048;-48
2021/04/18 04:42:33;;;;;;;15.32;8.90;;;3.90;99.90;;;;;;5110591;28;20036;-49
2021/04/18 04:45:37;;;;;;;15.35;8.70;;;4.00;99.90;;;;;;5110458;28;20066;-48
2021/04/18 04:48:42;;;;;;;14.60;8.32;;;4.00;99.90;;;;;;5110488;28;20050;-48
2021/04/18 04:51:46;;;;;;;14.30;8.65;;;4.10;99.90;;;;;;5110431;28;20054;-49
2021/04/18 04:54:52;;;;;;;15.57;8.95;;;4.10;99.90;;;;;;5109872;28;20043;-50
2021/04/18 04:57:56;;;;;;;15.40;8.40;;;4.10;99.90;;;;;;5097637;28;20405;-51
2021/04/18 05:01:01;;;;;;;18.77;9.90;;;4.20;99.90;;;;;;5110597;28;20044;-48
2021/04/18 05:04:05;;;;;;;16.25;8.93;;;4.20;99.90;;;;;;5110010;28;20067;-48
2021/04/18 05:07:09;;;;;;;14.15;8.50;;;4.30;99.90;;;;;;5109847;28;20055;-50
2021/04/18 05:10:14;;;;;;;12.93;8.77;;;4.40;99.90;;;;;;5110137;28;20054;-47
2021/04/18 05:13:19;;;;;;;14.60;8.07;;;4.50;99.90;;;;;;5113742;28;20039;-47
2021/04/18 05:16:23;;;;;;;17.00;9.43;;;4.60;99.90;;;;;;5112175;28;20043;-50
2021/04/18 05:19:27;;;;;;;14.38;7.72;;;4.80;99.90;;;;;;5113542;28;20519;-49
2021/04/18 05:22:34;;;;;;;12.52;8.52;;;4.80;99.90;;;;;;5113585;28;20095;-48
2021/04/18 05:25:38;;;;;;;13.85;7.80;;;4.70;99.90;;;;;;5113388;28;20194;-48
2021/04/18 05:28:42;;;;;;;11.82;7.95;;;4.30;99.90;;;;;;5113572;28;20039;-48
2021/04/18 05:31:46;;;;;;;14.23;8.13;;;4.50;99.90;;;;;;5113442;28;20039;-48
2021/04/18 05:34:51;;;;;;;14.40;8.98;;;5.10;99.90;;;;;;5113305;28;20050;-48
2021/04/18 05:37:55;;;;;;;16.52;9.45;;;6.20;99.90;;;;;;5113049;28;20038;-48
2021/04/18 05:40:59;;;;;;;22.55;13.00;;;7.00;99.90;;;;;;5112117;28;20047;-48
2021/04/18 05:44:07;;;;;;;19.27;11.07;;;5.70;99.90;;;;;;5113343;28;20047;-48
2021/04/18 05:47:11;;;;;;;19.80;11.15;;;6.70;99.90;;;;;;5113619;28;20047;-49
2021/04/18 05:50:15;;;;;;;22.77;12.70;;;8.90;99.90;;;;;;5113906;28;20413;-48
2021/04/18 05:53:19;;;;;;;18.35;10.38;;;11.40;99.90;;;;;;5112480;28;20508;-48
2021/04/18 05:56:23;;;;;;;18.05;11.07;;;10.80;99.90;;;;;;5101095;28;20051;-48
2021/04/18 05:59:27;;;;;;;15.98;10.35;;;12.80;99.90;;;;;;5109803;28;20047;-49
2021/04/18 06:02:31;;;;;;;16.33;9.77;;;14.70;98.00;;;;;;5099532;28;20043;-49
2021/04/18 06:05:35;;;;;;;14.40;9.60;;;15.70;94.80;;;;;;5100146;28;20436;-50
2021/04/18 06:08:39;;;;;;;13.15;8.43;;;15.10;94.30;;;;;;5113257;28;20054;-50
2021/04/18 06:11:43;;;;;;;12.57;7.38;;;14.50;92.30;;;;;;5106035;27;20046;-53
2021/04/18 06:14:47;;;;;;;10.40;6.85;;;14.90;93.80;;;;;;5116311;27;20393;-51
2021/04/18 06:17:51;;;;;;;13.80;7.10;;;13.20;92.30;;;;;;5113021;27;20512;-49
2021/04/18 06:20:55;;;;;;;11.57;7.03;;;12.00;95.60;;;;;;5109633;27;20054;-53
2021/04/18 06:23:59;;;;;;;12.40;7.50;;;12.80;94.90;;;;;;5118072;27;20393;-49
2021/04/18 06:27:04;;;;;;;12.68;7.55;;;13.80;94.00;;;;;;5119392;27;20042;-49
2021/04/18 06:30:09;;;;;;;10.20;7.15;;;13.70;93.10;;;;;;5111237;28;20054;-50
2021/04/18 06:33:14;;;;;;;9.40;7.18;;;13.10;93.90;;;;;;5111250;28;20513;-51
2021/04/18 06:36:18;;;;;;;11.05;6.72;;;14.00;93.30;;;;;;5099523;28;20547;-50
2021/04/18 06:39:22;;;;;;;8.73;6.28;;;14.40;93.80;;;;;;5100823;28;20409;-49
2021/04/18 06:42:30;;;;;;;8.85;6.93;;;16.00;92.00;;;;;;5098984;28;20047;-51
2021/04/18 06:45:34;;;;;;;9.35;7.05;;;16.70;89.90;;;;;;5096431;27;20042;-50
2021/04/18 06:48:39;;;;;;;10.30;6.47;;;18.10;86.40;;;;;;5113643;27;20519;-50
2021/04/18 06:51:50;;;;;;;7.72;6.10;;;18.90;84.00;;;;;;5101999;27;20050;-55
2021/04/18 06:54:55;;;;;;;10.20;7.22;;;19.70;80.70;;;;;;5107961;27;20046;-53
2021/04/18 06:57:59;;;;;;;11.27;7.35;;;19.40;77.60;;;;;;5105649;27;20132;-49
2021/04/18 07:01:04;;;;;;;13.45;9.00;;;17.30;79.90;;;;;;5115316;27;20031;-48
2021/04/18 07:04:12;;;;;;;11.00;8.32;;;16.50;81.50;;;;;;5106417;27;20042;-55
2021/04/18 07:07:26;;;;;;;12.18;8.18;;;16.00;83.00;;;;;;5113824;27;20042;-51
2021/04/18 07:10:31;;;;;;;13.50;8.02;;;17.80;82.10;;;;;;5112602;27;20051;-49
2021/04/18 07:13:38;;;;;;;13.75;8.23;;;19.10;80.20;;;;;;5112499;27;20062;-49
2021/04/18 07:16:43;;;;;;;11.07;6.90;;;18.30;78.70;;;;;;5089952;28;20051;-49
2021/04/18 07:19:50;;;;;;;9.73;7.53;;;19.30;78.20;;;;;;5092258;28;20043;-51
2021/04/18 07:22:54;;;;;;;9.23;7.00;;;17.60;75.50;;;;;;5110724;28;20039;-55
2021/04/18 07:26:15;;;;;;;10.95;7.55;;;16.40;80.70;;;;;;5098604;27;20043;-53
2021/04/18 07:29:20;;;;;;;8.75;7.13;;;16.70;82.60;;;;;;5109593;28;20042;-54
2021/04/18 07:32:26;;;;;;;8.40;6.68;;;18.70;80.70;;;;;;5107716;28;20048;-52
2021/04/18 07:35:41;;;;;;;11.98;8.00;;;20.40;76.30;;;;;;5100943;28;20049;-49
2021/04/18 07:38:51;;;;;;;22.95;15.60;;;16.20;78.90;;;;;;5097360;28;20050;-54
2021/04/18 07:41:55;;;;;;;29.55;18.75;;;13.70;85.70;;;;;;5103973;28;20043;-53
2021/04/18 07:45:03;;;;;;;20.88;15.32;;;14.00;87.70;;;;;;5115287;27;20070;-53
2021/04/18 07:48:13;;;;;;;29.70;19.40;;;14.00;88.30;;;;;;5119701;27;20432;-56
2021/04/18 07:51:19;;;;;;;29.73;17.90;;;15.60;85.00;;;;;;5119211;27;20046;-55
2021/04/18 07:54:23;;;;;;;28.50;18.08;;;15.80;85.40;;;;;;5109303;27;20069;-51
2021/04/18 07:57:28;;;;;;;24.90;15.85;;;16.70;82.70;;;;;;5119058;27;20045;-53
2021/04/18 08:00:33;;;;;;;24.65;16.83;;;16.60;83.40;;;;;;5117753;27;20517;-51
2021/04/18 08:03:41;;;;;;;22.27;16.23;;;19.70;78.60;;;;;;5118675;27;20050;-55
2021/04/18 08:06:45;;;;;;;23.73;16.33;;;19.80;76.20;;;;;;5105483;27;20050;-55
2021/04/18 08:10:32;;;;;;;23.73;15.43;;;18.40;76.60;;;;;;5116351;27;20512;-49
2021/04/18 08:13:48;;;;;;;18.27;12.18;;;20.60;74.90;;;;;;5086182;27;20047;-52
2021/04/18 08:17:14;;;;;;;14.50;11.43;;;19.10;74.10;;;;;;5063849;28;20669;-53
2021/04/18 08:20:40;;;;;;;13.00;9.90;;;20.80;72.50;;;;;;5100442;28;20398;-53
2021/04/18 08:23:44;;;;;;;12.63;9.25;;;22.90;68.50;;;;;;5100230;28;20049;-53
2021/04/18 08:27:11;;;;;;;9.63;8.18;;;22.20;66.50;;;;;;5074121;28;20039;-53
2021/04/18 08:30:16;;;;;;;10.18;7.93;;;18.90;67.40;;;;;;5098898;28;20039;-50
2021/04/18 08:33:38;;;;;;;11.82;7.88;;;21.50;69.40;;;;;;5098429;28;20055;-51
2021/04/18 08:36:47;;;;;;;9.32;7.43;;;22.40;64.30;;;;;;5084004;28;20525;-49
2021/04/18 08:40:04;;;;;;;9.82;7.53;;;23.50;62.90;;;;;;5098064;28;20052;-51
2021/04/18 08:43:23;;;;;;;9.85;7.15;;;26.00;59.50;;;;;;5087060;28;20046;-51
2021/04/18 08:46:27;;;;;;;10.95;7.85;;;26.60;55.20;;;;;;5089675;28;20054;-48
2021/04/18 08:49:43;;;;;;;14.30;11.38;;;25.40;56.40;;;;;;5099849;28;20051;-50
2021/04/18 08:52:47;;;;;;;13.55;9.18;;;25.10;55.30;;;;;;5097683;28;20046;-54
2021/04/18 08:56:02;;;;;;;20.35;13.38;;;24.20;55.30;;;;;;5093834;28;20527;-54
2021/04/18 08:59:13;;;;;;;11.35;8.85;;;20.40;61.70;;;;;;5097927;28;20452;-52
2021/04/18 09:02:17;;;;;;;11.40;8.00;;;20.80;60.40;;;;;;5093108;28;20051;-50
2021/04/18 09:05:23;;;;;;;11.50;8.25;;;21.30;59.60;;;;;;5098518;28;20054;-52
2021/04/18 09:08:28;;;;;;;25.00;15.75;;;20.10;61.30;;;;;;5088414;28;20054;-54
2021/04/18 09:11:38;;;;;;;13.45;8.85;;;20.20;63.30;;;;;;5089409;28;20074;-53
2021/04/18 09:14:50;;;;;;;9.95;7.55;;;21.70;60.10;;;;;;5097174;28;20054;-55
2021/04/18 09:18:01;;;;;;;8.57;6.53;;;22.30;58.60;;;;;;5083876;28;20032;-48
2021/04/18 09:21:13;;;;;;;13.85;10.32;;;23.50;55.50;;;;;;5090881;28;20975;-52
2021/04/18 09:24:17;;;;;;;13.18;9.57;;;22.70;58.50;;;;;;5097107;28;20492;-51
2021/04/18 09:27:24;;;;;;;13.65;10.10;;;27.00;53.40;;;;;;5082162;28;20058;-50
2021/04/18 09:30:29;;;;;;;12.65;8.80;;;23.40;53.60;;;;;;5094903;28;20047;-54
2021/04/18 09:33:33;;;;;;;10.05;8.00;;;25.90;53.50;;;;;;5097513;28;20046;-50
2021/04/18 09:36:37;;;;;;;12.85;9.60;;;28.60;51.20;;;;;;5074002;28;20058;-51
2021/04/18 09:39:42;;;;;;;10.43;8.48;;;27.70;51.20;;;;;;5098098;28;20047;-51
2021/04/18 09:42:50;;;;;;;10.68;7.43;;;27.50;50.40;;;;;;5097341;28;20051;-54
2021/04/18 09:46:01;;;;;;;8.45;7.03;;;28.60;49.60;;;;;;5094850;28;20133;-50
2021/04/18 09:49:05;;;;;;;13.00;8.85;;;28.30;48.70;;;;;;5092866;28;20058;-51
2021/04/18 09:52:10;;;;;;;8.10;6.60;;;26.60;46.70;;;;;;5094823;28;20504;-55
2021/04/18 09:55:21;;;;;;;8.75;6.88;;;24.30;50.70;;;;;;5095994;28;20102;-53
2021/04/18 09:58:30;;;;;;;;;;;19.80;56.00;;;;;;5047946;27;20047;-51
2021/04/18 10:01:36;;;;;;;8.88;7.07;;;20.10;56.20;;;;;;5093438;27;19942;-53
2021/04/18 10:04:41;;;;;;;8.25;7.05;;;19.80;57.70;;;;;;5102801;28;20043;-53
2021/04/18 10:07:46;;;;;;;9.27;6.65;;;19.70;59.00;;;;;;5085761;28;20501;-50
2021/04/18 10:11:15;;;;;;;8.38;6.28;;;19.70;57.90;;;;;;5094356;28;20047;-51
2021/04/18 10:14:19;;;;;;;9.82;7.10;;;19.10;58.10;;;;;;5100280;28;20035;-53
2021/04/18 10:17:35;;;;;;;9.00;6.63;;;18.00;59.60;;;;;;5085255;28;20055;-55
2021/04/18 10:20:41;;;;;;;9.32;6.35;;;18.70;60.90;;;;;;5090756;28;20421;-55
2021/04/18 10:23:46;;;;;;;10.82;6.57;;;19.50;61.20;;;;;;5099866;28;20051;-51
2021/04/18 10:26:50;;;;;;;10.60;7.07;;;19.90;58.10;;;;;;5085527;28;20063;-52
2021/04/18 10:29:55;;;;;;;9.20;6.38;;;19.50;57.50;;;;;;5096217;28;20035;-49
2021/04/18 10:32:59;;;;;;;8.82;6.60;;;18.30;58.60;;;;;;5099413;28;20051;-49
2021/04/18 10:36:03;;;;;;;9.60;6.05;;;17.50;60.40;;;;;;5097725;28;20054;-51
2021/04/18 10:39:09;;;;;;;10.98;6.53;;;17.40;68.40;;;;;;5072606;28;20050;-52
2021/04/18 10:42:13;;;;;;;9.20;6.10;;;17.80;64.90;;;;;;5086381;28;20051;-50
2021/04/18 10:45:18;;;;;;;11.60;6.47;;;17.90;61.50;;;;;;5102894;28;20047;-51
2021/04/18 10:48:22;;;;;;;12.90;6.28;;;16.20;63.90;;;;;;5092688;28;20047;-51
2021/04/18 10:51:26;;;;;;;9.25;6.60;;;15.50;68.70;;;;;;5098703;28;20047;-49
2021/04/18 10:54:30;;;;;;;7.55;5.75;;;15.90;67.10;;;;;;5100656;28;20050;-50
2021/04/18 10:57:34;;;;;;;9.82;6.30;;;15.60;65.50;;;;;;5084757;28;20504;-51
2021/04/18 11:00:38;;;;;;;8.25;5.63;;;15.00;66.70;;;;;;5098668;28;20591;-53
2021/04/18 11:03:49;;;;;;;9.55;6.38;;;15.40;70.00;;;;;;5100394;28;20041;-48
2021/04/18 11:06:53;;;;;;;12.05;6.45;;;15.90;68.90;;;;;;5083740;28;21115;-50
2021/04/18 11:09:57;;;;;;;9.88;5.50;;;16.10;67.50;;;;;;5098333;28;20043;-48
2021/04/18 11:13:01;;;;;;;8.02;6.05;;;16.20;68.90;;;;;;5098714;28;20054;-49
2021/04/18 11:16:06;;;;;;;11.15;6.43;;;15.90;68.10;;;;;;5088751;28;20422;-51
2021/04/18 11:19:11;;;;;;;7.93;5.32;;;15.60;67.20;;;;;;5082505;27;20050;-50
2021/04/18 11:22:16;;;;;;;9.88;5.90;;;15.30;67.70;;;;;;5089563;27;20039;-52
2021/04/18 11:25:20;;;;;;;9.00;6.28;;;15.20;69.40;;;;;;5095507;27;20043;-53
2021/04/18 11:28:25;;;;;;;10.73;6.25;;;14.90;69.00;;;;;;5088616;28;20054;-53
2021/04/18 11:31:30;;;;;;;7.93;6.35;;;14.60;70.90;;;;;;5095087;28;20813;-52
2021/04/18 11:34:35;;;;;;;10.18;7.00;;;13.70;74.40;;;;;;5087254;28;20062;-48
2021/04/18 11:37:39;;;;;;;9.50;6.13;;;13.30;76.10;;;;;;5085229;28;20054;-53
2021/04/18 11:40:54;;;;;;;12.70;8.77;;;13.40;73.60;;;;;;5095397;28;20047;-51
2021/04/18 11:43:59;;;;;;;9.40;6.30;;;13.50;76.10;;;;;;5099294;28;20043;-48
2021/04/18 11:47:03;;;;;;;9.25;6.13;;;13.60;77.40;;;;;;5082679;28;20057;-49
2021/04/18 11:50:08;;;;;;;15.05;11.50;;;13.90;77.20;;;;;;5096462;27;20059;-52
2021/04/18 11:53:12;;;;;;;17.67;12.80;;;14.00;75.30;;;;;;5095887;27;20495;-52
2021/04/18 11:56:16;;;;;;;12.13;6.82;;;13.90;77.30;;;;;;5086624;28;20058;-50
2021/04/18 11:59:21;;;;;;;23.30;18.33;;;13.50;75.00;;;;;;5093679;27;20050;-51
2021/04/18 12:02:24;;;;;;;11.73;6.97;;;13.30;76.50;;;;;;5095542;28;20066;-51
2021/04/18 12:05:29;;;;;;;9.35;6.53;;;12.90;75.20;;;;;;5098180;28;20047;-50
2021/04/18 12:08:35;;;;;;;9.48;6.47;;;12.90;78.10;;;;;;5095323;28;20051;-53
2021/04/18 12:11:39;;;;;;;9.20;6.65;;;12.80;78.40;;;;;;5096441;28;20838;-52
2021/04/18 12:14:43;;;;;;;8.63;5.75;;;12.90;80.60;;;;;;5098968;28;20484;-49
2021/04/18 12:17:47;;;;;;;8.63;6.07;;;12.70;76.20;;;;;;5080990;28;20048;-51
2021/04/18 12:20:51;;;;;;;12.00;5.57;;;12.60;74.70;;;;;;5095913;28;20046;-51
2021/04/18 12:23:58;;;;;;;7.68;4.70;;;12.90;74.00;;;;;;5094483;27;20066;-50
2021/04/18 12:27:02;;;;;;;6.90;4.35;;;13.00;74.40;;;;;;5078160;28;20035;-52
2021/04/18 12:30:08;;;;;;;6.50;4.47;;;13.00;74.20;;;;;;5069085;28;20582;-50
2021/04/18 12:33:13;;;;;;;6.22;4.18;;;13.30;75.50;;;;;;5098443;28;21406;-51
2021/04/18 12:36:17;;;;;;;8.30;5.57;;;13.70;76.40;;;;;;5089603;28;20047;-52
2021/04/18 12:39:22;;;;;;;6.38;4.32;;;13.80;74.30;;;;;;5095955;28;20051;-51
2021/04/18 12:42:26;;;;;;;9.25;4.60;;;13.90;75.40;;;;;;5091331;28;20046;-51
2021/04/18 12:45:30;;;;;;;8.07;5.13;;;13.90;76.50;;;;;;5093533;28;20055;-49
2021/04/18 12:48:34;;;;;;;7.18;5.10;;;14.10;74.60;;;;;;5089132;28;20050;-50
2021/04/18 12:51:38;;;;;;;6.60;5.05;;;14.20;75.00;;;;;;5091668;28;20409;-53
2021/04/18 12:54:42;;;;;;;7.13;5.03;;;14.20;74.00;;;;;;5085710;28;20050;-54
2021/04/18 12:57:47;;;;;;;7.55;5.13;;;13.60;77.40;;;;;;5081906;28;20054;-50
2021/04/18 13:00:51;;;;;;;8.15;5.40;;;13.30;75.70;;;;;;5096330;28;20741;-52
2021/04/18 13:03:56;;;;;;;9.10;6.82;;;13.50;78.10;;;;;;5101852;28;20042;-53
2021/04/18 13:07:01;;;;;;;9.25;6.00;;;13.60;78.20;;;;;;5093775;28;20043;-53
2021/04/18 13:10:10;;;;;;;19.52;7.20;;;13.80;76.40;;;;;;5100846;28;20505;-49
2021/04/18 13:13:15;;;;;;;9.70;5.40;;;14.10;78.30;;;;;;5095808;28;20051;-50
2021/04/18 13:16:19;;;;;;;11.57;6.82;;;13.80;76.10;;;;;;5105051;28;20050;-49
2021/04/18 13:19:24;;;;;;;11.10;6.72;;;14.10;77.40;;;;;;5088296;28;20051;-50
2021/04/18 13:22:28;;;;;;;8.38;5.78;;;14.50;77.30;;;;;;5101455;28;20042;-53
2021/04/18 13:25:33;;;;;;;7.15;4.90;;;14.80;76.90;;;;;;5106157;28;20647;-53
2021/04/18 13:28:37;;;;;;;8.52;5.30;;;15.30;75.20;;;;;;5106144;28;20051;-50
2021/04/18 13:31:41;;;;;;;6.40;4.35;;;15.60;74.60;;;;;;5106455;28;20054;-50
2021/04/18 13:34:45;;;;;;;5.82;4.43;;;15.90;74.20;;;;;;5113002;28;20046;-49
2021/04/18 13:37:51;;;;;;;7.65;4.70;;;16.00;72.70;;;;;;5104115;28;20043;-51
2021/04/18 13:40:55;;;;;;;7.28;4.90;;;16.20;72.40;;;;;;5100257;28;20035;-49
2021/04/18 13:44:00;;;;;;;6.97;4.57;;;16.30;72.40;;;;;;5112634;28;20034;-51
2021/04/18 13:47:04;;;;;;;7.25;4.72;;;16.40;70.10;;;;;;5098481;28;20038;-51
2021/04/18 13:50:10;;;;;;;8.98;4.97;;;16.50;70.30;;;;;;5110418;28;20059;-53
2021/04/18 13:53:15;;;;;;;6.03;4.60;;;16.60;69.10;;;;;;5109217;28;20043;-55
2021/04/18 13:56:21;;;;;;;5.15;3.97;;;16.40;68.60;;;;;;5110743;28;20050;-50
2021/04/18 13:59:25;;;;;;;7.05;4.60;;;16.50;70.80;;;;;;5107691;28;20050;-51
2021/04/18 14:02:32;;;;;;;7.57;5.10;;;16.40;70.40;;;;;;5106815;28;20039;-49
2021/04/18 14:05:36;;;;;;;5.88;4.55;;;16.30;70.50;;;;;;5102162;28;20039;-49
2021/04/18 14:08:42;;;;;;;5.93;4.43;;;16.40;70.20;;;;;;5100270;28;20417;-54
2021/04/18 14:11:47;;;;;;;6.10;4.95;;;16.20;70.10;;;;;;5098128;28;20071;-53
2021/04/18 14:14:56;;;;;;;5.28;4.10;;;15.60;70.40;;;;;;5088519;28;20047;-52
2021/04/18 14:18:01;;;;;;;7.57;4.53;;;15.70;71.40;;;;;;5102998;28;20047;-53
2021/04/18 14:21:06;;;;;;;6.97;4.30;;;15.90;71.20;;;;;;5092574;28;20497;-48
2021/04/18 14:24:11;;;;;;;6.68;4.78;;;16.10;70.90;;;;;;5085833;28;20051;-49
2021/04/18 14:27:15;;;;;;;6.28;4.32;;;16.10;71.70;;;;;;5102721;28;20508;-49
2021/04/18 14:30:20;;;;;;;7.10;4.53;;;16.10;70.40;;;;;;5098581;28;20047;-53
2021/04/18 14:33:24;;;;;;;9.52;4.68;;;16.20;70.20;;;;;;5112144;28;20046;-52
2021/04/18 14:36:28;;;;;;;5.95;4.28;;;16.20;70.70;;;;;;5110638;28;20050;-49
2021/04/18 14:39:32;;;;;;;7.18;4.38;;;16.40;71.40;;;;;;5108121;28;20039;-54
2021/04/18 14:42:37;;;;;;;7.47;4.63;;;16.60;69.60;;;;;;5106409;28;20030;-49
2021/04/18 14:45:41;;;;;;;7.00;4.82;;;16.60;71.20;;;;;;5103249;28;20031;-49
2021/04/18 14:48:45;;;;;;;10.60;7.00;;;16.60;69.70;;;;;;5109610;28;20039;-49
2021/04/18 14:51:52;;;;;;;10.52;5.47;;;16.80;69.70;;;;;;5096938;28;20050;-51
2021/04/18 14:54:57;;;;;;;7.50;4.95;;;16.90;69.00;;;;;;5095913;28;20043;-49
2021/04/18 14:58:01;;;;;;;9.63;5.63;;;16.90;71.40;;;;;;5109552;28;20414;-50
2021/04/18 15:01:05;;;;;;;6.82;5.50;;;16.90;70.60;;;;;;5109037;28;20501;-50
2021/04/18 15:04:09;;;;;;;8.20;5.47;;;16.80;70.60;;;;;;5109839;28;20039;-49
2021/04/18 15:07:13;;;;;;;6.97;5.20;;;16.90;70.80;;;;;;5108141;28;20532;-49
2021/04/18 15:10:19;;;;;;;5.70;4.43;;;16.80;71.00;;;;;;5109123;28;20058;-51
2021/04/18 15:13:23;;;;;;;6.13;4.32;;;16.70;71.20;;;;;;5107192;28;20051;-52
2021/04/18 15:16:27;;;;;;;5.65;4.68;;;16.70;71.80;;;;;;5096965;28;20051;-48
2021/04/18 15:19:31;;;;;;;5.90;4.55;;;16.50;70.00;;;;;;5095025;28;20051;-48
2021/04/18 15:22:35;;;;;;;7.65;5.03;;;16.50;72.10;;;;;;5100623;28;20434;-50
2021/04/18 15:25:39;;;;;;;6.25;4.75;;;16.40;72.60;;;;;;5104810;28;20035;-50
2021/04/18 15:28:44;;;;;;;9.27;5.55;;;16.50;72.60;;;;;;5105708;28;20042;-52
2021/04/18 15:31:49;;;;;;;8.73;5.93;;;16.40;71.40;;;;;;5105928;28;20039;-48
2021/04/18 15:34:53;;;;;;;7.18;5.35;;;16.40;71.80;;;;;;5106064;28;20039;-50
2021/04/18 15:37:57;;;;;;;5.65;4.47;;;16.40;72.10;;;;;;5103755;28;20051;-55
2021/04/18 15:41:04;;;;;;;7.63;5.13;;;16.40;72.40;;;;;;5089856;28;20413;-52
2021/04/18 15:44:09;;;;;;;9.60;5.20;;;16.60;72.70;;;;;;5107388;28;20043;-49
2021/04/18 15:47:15;;;;;;;8.05;5.25;;;16.60;72.80;;;;;;5105695;28;20046;-51
2021/04/18 15:50:21;;;;;;;9.25;6.00;;;16.60;71.40;;;;;;5104357;28;20042;-49
2021/04/18 15:53:25;;;;;;;8.00;5.15;;;16.50;71.20;;;;;;5106612;28;20042;-48
2021/04/18 15:56:44;;;;;;;7.32;4.97;;;16.40;71.40;;;;;;5105279;28;20524;-49
2021/04/18 16:00:08;;;;;;;7.57;5.65;;;16.30;74.30;;;;;;5091255;28;20051;-55
2021/04/18 16:03:16;;;;;;;7.32;5.50;;;16.30;73.70;;;;;;5087247;28;20039;-49
2021/04/18 16:06:21;;;;;;;8.68;4.75;;;16.30;73.60;;;;;;5099567;28;20055;-50
2021/04/18 16:09:27;;;;;;;16.67;8.73;;;16.30;74.00;;;;;;5088985;28;20034;-50